METAR AND TAF INFORMATION
METAR FOR EDHI
ADDS - METARS form results

(2306 UTC 22 May 2018)
Data provider http://aviationweather.gov/adds/metars/
 
METAR text: EDHI 222250Z AUTO 08008KT 050V110 9999 // SCT250/// 17/08 Q1018
Conditions at: EDHI (HAMBURG/FINKENWE, DE) observed 2250 UTC 22 May 2018
Temperature: 17.0°C (63°F)
Dewpoint: 8.0°C (46°F) [RH = 55%]
Pressure (altimeter): 30.06 inches Hg (1018.0 mb)
Winds: from the E (80 degrees) at 9 MPH (8 knots; 4.2 m/s)
Visibility: 6 or more miles (10+ km)
Ceiling: at least 12,000 feet AGL
Clouds: scattered clouds at 25000 feet AGL
Weather: no significant weather observed at this time

METAR text: EDHI 222220Z AUTO 08008KT 9999 // NCD 18/08 Q1017
Conditions at: EDHI (HAMBURG/FINKENWE, DE) observed 2220 UTC 22 May 2018
Temperature: 18.0°C (64°F)
Dewpoint: 8.0°C (46°F) [RH = 52%]
Pressure (altimeter): 30.03 inches Hg (1017.0 mb)
Winds: from the E (80 degrees) at 9 MPH (8 knots; 4.2 m/s)
Visibility: 6 or more miles (10+ km)
Ceiling: at least 12,000 feet AGL
Clouds: sky clear below 12,000 feet AGL
Weather: no significant weather observed at this time

 AIRPORT MAP

 RUNWAY INFORMATION
Runway 05 Runway length 8629 ft Runway width 148 ft
Runway elevation 16 ft Runway displaced threshold 341 ft Runway heading 52
Runway 23 Runway length 8629 ft Runway width 148 ft
Runway elevation 15 ft Runway displaced threshold 2474 ft Runway heading 232

 AIRPORT FREQUENCIES
Type A/D Name BREMEN RAD Frequency 124.225 MHZ
Type AFIS Name BREMEN INF Frequency 125.1 MHZ
Type ATIS Name ATIS Frequency 123.125 MHZ
Type TWR Name FINKENWERD Frequency 123.25 MHZ

 AIRPORT NEAR NAVIGATION AIDS



Powered by Virtual Airlines Manager [v2.6.2]